KHUA/HUA METAR and TAF weather

Enter ICAO airport designator
Station Type Date Time Source
KHUA METAR 2021/09/16 20:58 UTC NOAA

KHUA 162058Z AUTO 13008KT 10SM SCT020 OVC027 25/21 A2999 RMK AO2 LTG DSNT SW OVC V BKN SLP151 T02470208 55010 $


Station Type Date Time Source
KHUA Decoded METAR 2021/09/16 20:58 UTC NOAA

Station name not available
Sep 16, 2021 - 04:58 PM EDT / 2021.09.16 2058 UTC
Wind: from the SE (130 degrees) at 9 MPH (8 KT):0
Visibility: 10 mile(s):0
Sky conditions: overcast
Weather: Lightning observed
Temperature: 76.5 F (24.7 C)
Dew Point: 69.4 F (20.8 C)
Relative Humidity: 78%
Pressure (altimeter): 29.99 in. Hg (1015 hPa)
Pressure tendency: 0.03 inches (1.0 hPa) lower than three hours ago
ob: KHUA 162058Z AUTO 13008KT 10SM SCT020 OVC027 25/21 A2999 RMK AO2 LTG DSNT SW OVC V BKN SLP151 T02470208 55010
cycle: 21

Station Type Date Time Source
KHUA TAF 2021/09/16 20:07 UTC NOAA

TAF KHUA 162000Z 1620/1802 12012KT 9000 -SHRA FEW020 OVC040 QNH2997INS
BECMG 1701/1702 11009KT 9999 NSW BKN035 QNH2996INS
BECMG 1709/1710 11006KT 8000 BR BKN010 QNH3004INS
BECMG 1713/1714 14012KT 9999 NSW BKN015 QNH3011INS
BECMG 1716/1717 14010G15KT 9999 SCT020 SCT040 QNH3009INS
BECMG 1718/1719 13012KT 8000 -SHRA BKN020 QNH3002INS
TEMPO 1719/1723 19010G15KT 6000 -TSRA BKN020CB OVC030 TX28/1621Z TN21/1706Z LAST NO
AMDS AFT 1700 NEXT 1712

Example: see airport list